createdAt,value
2023-04-16T00:01:53.803Z,58.31
2023-04-16T00:04:56.340Z,58.29
2023-04-16T00:07:58.723Z,58.54
2023-04-16T00:11:01.037Z,58.75
2023-04-16T00:14:03.398Z,58.87
2023-04-16T00:17:05.870Z,58.38
2023-04-16T00:20:09.262Z,58.36
2023-04-16T00:23:11.618Z,58.51
2023-04-16T00:26:13.970Z,58.71
2023-04-16T00:29:19.269Z,58.59
2023-04-16T00:32:21.633Z,58.76
2023-04-16T00:35:24.097Z,58.61
2023-04-16T00:38:30.353Z,58.70
2023-04-16T00:41:32.730Z,58.83
2023-04-16T00:44:36.169Z,58.64
2023-04-16T00:47:39.010Z,58.49
2023-04-16T00:50:41.853Z,58.58
2023-04-16T00:53:46.081Z,58.34
2023-04-16T00:56:48.853Z,58.75
2023-04-16T00:59:51.689Z,58.61
2023-04-16T01:02:54.754Z,58.57
2023-04-16T01:05:57.187Z,58.80
2023-04-16T01:08:59.605Z,58.41
2023-04-16T01:12:02.193Z,58.69
2023-04-16T01:15:05.011Z,58.92
2023-04-16T01:18:15.372Z,58.88
2023-04-16T01:21:17.758Z,58.92
2023-04-16T01:24:20.106Z,58.54
2023-04-16T01:27:22.521Z,58.80
2023-04-16T01:30:25.434Z,59.11
2023-04-16T01:33:40.667Z,58.69
2023-04-16T01:36:43.184Z,59.06
2023-04-16T01:39:45.508Z,59.13
2023-04-16T01:42:47.936Z,59.12
2023-04-16T01:45:50.355Z,59.14
2023-04-16T01:48:54.804Z,59.09
2023-04-16T01:51:57.110Z,58.84
2023-04-16T01:54:59.486Z,58.81
2023-04-16T01:58:01.832Z,59.01
2023-04-16T02:01:09.119Z,59.18
2023-04-16T02:04:12.856Z,59.46
2023-04-16T02:07:15.256Z,58.85
2023-04-16T02:10:17.573Z,59.26
2023-04-16T02:13:20.488Z,59.19
2023-04-16T02:16:24.104Z,59.13
2023-04-16T02:19:35.340Z,59.16
2023-04-16T02:22:37.720Z,59.39
2023-04-16T02:25:43.641Z,59.36
2023-04-16T02:28:47.035Z,59.20
2023-04-16T02:31:50.164Z,59.24
2023-04-16T02:34:52.825Z,59.35
2023-04-16T02:37:55.131Z,59.33
2023-04-16T02:40:57.539Z,59.01
2023-04-16T02:43:59.913Z,59.04
2023-04-16T02:47:02.390Z,59.46
2023-04-16T02:50:05.091Z,59.32
2023-04-16T02:53:07.897Z,59.49
2023-04-16T02:56:10.559Z,59.34
2023-04-16T02:59:12.901Z,59.43
2023-04-16T03:02:16.272Z,59.25
2023-04-16T03:05:18.769Z,59.21
2023-04-16T03:08:22.379Z,59.23
2023-04-16T03:11:24.757Z,59.11
2023-04-16T03:14:27.094Z,59.37
2023-04-16T03:17:30.801Z,59.39
2023-04-16T03:20:33.426Z,59.08
2023-04-16T03:23:36.484Z,59.47
2023-04-16T03:26:40.741Z,59.17
2023-04-16T03:29:43.244Z,59.38
2023-04-16T03:32:45.701Z,59.25
2023-04-16T03:35:55.561Z,59.61
2023-04-16T03:38:58.447Z,59.42
2023-04-16T03:42:02.236Z,59.54
2023-04-16T03:45:05.237Z,59.58
2023-04-16T03:48:07.933Z,59.36
2023-04-16T03:51:10.553Z,59.40
2023-04-16T03:54:14.634Z,59.55
2023-04-16T03:57:20.627Z,59.70
2023-04-16T04:00:23.348Z,59.52
2023-04-16T04:03:42.141Z,59.59
2023-04-16T04:06:46.348Z,59.40
2023-04-16T04:09:48.859Z,59.39
2023-04-16T04:12:51.390Z,59.16
2023-04-16T04:15:53.898Z,59.45
2023-04-16T04:18:57.227Z,59.12
2023-04-16T04:21:59.635Z,59.25
2023-04-16T04:25:02.080Z,59.28
2023-04-16T04:28:07.383Z,59.11
2023-04-16T04:31:09.822Z,59.09
2023-04-16T04:34:12.100Z,59.18
2023-04-16T04:37:14.432Z,59.40
2023-04-16T04:40:16.926Z,59.08
2023-04-16T04:43:20.763Z,59.37
2023-04-16T04:46:23.370Z,59.11
2023-04-16T04:49:26.067Z,58.55
2023-04-16T04:52:28.449Z,58.63
2023-04-16T04:55:30.940Z,58.59
2023-04-16T04:58:33.964Z,58.61
2023-04-16T05:01:36.399Z,58.81
2023-04-16T05:04:38.808Z,58.60
2023-04-16T05:07:41.168Z,58.39
2023-04-16T05:10:43.555Z,58.22
2023-04-16T05:13:45.941Z,58.52
2023-04-16T05:16:48.330Z,58.17
2023-04-16T05:19:52.343Z,58.24
2023-04-16T05:22:55.502Z,58.21
2023-04-16T05:25:57.853Z,58.36
2023-04-16T05:29:00.199Z,57.89
2023-04-16T05:32:02.865Z,57.85
2023-04-16T05:35:05.673Z,57.84
2023-04-16T05:38:08.281Z,57.86
2023-04-16T05:41:10.757Z,58.03
2023-04-16T05:44:13.094Z,57.57
2023-04-16T05:47:15.608Z,57.69
2023-04-16T05:50:18.016Z,57.58
2023-04-16T05:53:20.384Z,57.21
2023-04-16T05:56:23.421Z,57.32
2023-04-16T05:59:25.814Z,57.07
2023-04-16T06:02:30.563Z,57.24
2023-04-16T06:05:33.015Z,57.33
2023-04-16T06:08:35.585Z,57.18
2023-04-16T06:11:37.948Z,56.57
2023-04-16T06:14:40.384Z,56.20
2023-04-16T06:17:42.704Z,56.22
2023-04-16T06:20:45.097Z,56.52
2023-04-16T06:23:47.405Z,56.29
2023-04-16T06:26:49.734Z,55.85
2023-04-16T06:29:52.122Z,56.27
2023-04-16T06:32:54.562Z,55.93
2023-04-16T06:35:56.976Z,56.49
2023-04-16T06:38:59.301Z,56.17
2023-04-16T06:42:01.895Z,56.35
2023-04-16T06:45:04.589Z,56.58
2023-04-16T06:48:07.026Z,56.06
2023-04-16T06:51:09.511Z,56.61
2023-04-16T06:54:11.882Z,56.47
2023-04-16T06:57:14.269Z,56.71
2023-04-16T07:00:16.778Z,56.30
2023-04-16T07:03:19.374Z,56.32
2023-04-16T07:06:21.852Z,56.58
2023-04-16T07:09:24.270Z,56.40
2023-04-16T07:12:27.294Z,56.10
2023-04-16T07:15:29.705Z,56.43
2023-04-16T07:18:32.187Z,56.16
2023-04-16T07:21:34.570Z,56.44
2023-04-16T07:24:36.902Z,56.06
2023-04-16T07:27:39.264Z,56.42
2023-04-16T07:30:41.670Z,55.96
2023-04-16T07:33:44.059Z,55.85
2023-04-16T07:36:46.446Z,55.84
2023-04-16T07:39:48.820Z,55.35
2023-04-16T07:42:51.265Z,54.74
2023-04-16T07:45:53.621Z,54.24
2023-04-16T07:48:56.066Z,53.59
2023-04-16T07:51:58.421Z,52.96
2023-04-16T07:55:01.000Z,52.85
2023-04-16T07:58:03.459Z,53.09
2023-04-16T08:01:06.162Z,53.01
2023-04-16T08:04:08.680Z,53.34
2023-04-16T08:07:11.220Z,52.90
2023-04-16T08:10:13.645Z,53.18
2023-04-16T08:13:16.054Z,52.75
2023-04-16T08:16:18.560Z,53.00
2023-04-16T08:19:21.020Z,52.75
2023-04-16T08:22:23.431Z,53.07
2023-04-16T08:25:25.879Z,52.81
2023-04-16T08:28:28.209Z,52.81
2023-04-16T08:31:30.669Z,52.68
2023-04-16T08:34:33.111Z,52.70
2023-04-16T08:37:35.541Z,52.73
2023-04-16T08:40:41.712Z,52.47
2023-04-16T08:43:45.685Z,52.62
2023-04-16T08:46:48.467Z,52.55
2023-04-16T08:49:52.081Z,52.43
2023-04-16T08:52:59.051Z,52.63
2023-04-16T08:56:04.434Z,52.47
2023-04-16T08:59:06.794Z,52.88
2023-04-16T09:02:10.196Z,52.47
2023-04-16T09:05:19.051Z,52.34
2023-04-16T09:08:21.521Z,52.42
2023-04-16T09:11:24.491Z,52.27
2023-04-16T09:14:27.195Z,52.47
2023-04-16T09:17:29.657Z,52.17
2023-04-16T09:20:32.087Z,52.32
2023-04-16T09:23:34.608Z,52.45
2023-04-16T09:26:37.102Z,52.53
2023-04-16T09:29:40.884Z,52.23
2023-04-16T09:32:43.256Z,52.08
2023-04-16T09:35:47.737Z,52.22
2023-04-16T09:38:51.918Z,52.43
2023-04-16T09:41:55.209Z,52.42
2023-04-16T09:45:00.349Z,52.44
2023-04-16T09:48:06.091Z,52.19
2023-04-16T09:51:08.510Z,52.06
2023-04-16T09:54:11.248Z,52.06
2023-04-16T09:57:13.686Z,52.21
2023-04-16T10:00:19.097Z,52.11
2023-04-16T10:03:30.844Z,52.10
2023-04-16T10:06:33.410Z,52.20
2023-04-16T10:09:39.462Z,52.50
2023-04-16T10:12:41.865Z,52.24
2023-04-16T10:15:44.301Z,52.34
2023-04-16T10:18:47.305Z,52.17
2023-04-16T10:21:49.833Z,52.56
2023-04-16T10:24:52.695Z,52.36
2023-04-16T10:27:55.670Z,52.59
2023-04-16T10:30:58.846Z,52.19
2023-04-16T10:34:01.662Z,52.29
2023-04-16T10:37:04.016Z,52.00
2023-04-16T10:40:23.137Z,52.08
2023-04-16T10:43:25.636Z,52.39
2023-04-16T10:46:32.830Z,52.15
2023-04-16T10:49:35.692Z,52.35
2023-04-16T10:52:38.056Z,52.18
2023-04-16T10:55:40.376Z,52.43
2023-04-16T10:58:42.874Z,52.10
2023-04-16T11:01:47.157Z,52.00
2023-04-16T11:04:50.166Z,52.17
2023-04-16T11:07:52.665Z,52.21
2023-04-16T11:10:58.631Z,52.08
2023-04-16T11:14:01.101Z,52.43
2023-04-16T11:17:06.516Z,52.43
2023-04-16T11:20:17.755Z,52.53
2023-04-16T11:23:23.111Z,52.46
2023-04-16T11:26:27.680Z,52.24
2023-04-16T11:29:30.047Z,52.44
2023-04-16T11:32:33.875Z,52.35
2023-04-16T11:35:36.290Z,52.27
2023-04-16T11:38:41.068Z,52.19
2023-04-16T11:41:44.667Z,52.24
2023-04-16T11:44:47.055Z,52.24
2023-04-16T11:47:55.557Z,52.09
2023-04-16T11:50:58.907Z,52.39
2023-04-16T11:54:02.279Z,52.39
2023-04-16T11:57:05.055Z,52.11
2023-04-16T12:00:13.546Z,52.34
2023-04-16T12:03:16.309Z,52.05
2023-04-16T12:06:18.860Z,51.94
2023-04-16T12:09:25.351Z,52.32
2023-04-16T12:12:30.817Z,52.05
2023-04-16T12:15:44.829Z,51.91
2023-04-16T12:19:04.199Z,51.72
2023-04-16T12:22:06.696Z,51.98
2023-04-16T12:25:17.158Z,51.83
2023-04-16T12:28:29.987Z,51.98
2023-04-16T12:31:38.570Z,51.92
2023-04-16T12:34:51.290Z,51.96
2023-04-16T12:37:53.634Z,52.05
2023-04-16T12:40:57.599Z,51.69
2023-04-16T12:44:14.400Z,51.64
2023-04-16T12:47:17.017Z,52.02
2023-04-16T12:50:19.375Z,51.82
2023-04-16T12:53:21.741Z,51.88
2023-04-16T12:56:24.254Z,52.01
2023-04-16T12:59:26.565Z,51.60
2023-04-16T13:02:29.699Z,51.52
2023-04-16T13:05:32.099Z,52.00
2023-04-16T13:08:34.447Z,51.87
2023-04-16T13:11:36.831Z,51.99
2023-04-16T13:14:39.315Z,51.84
2023-04-16T13:17:41.676Z,51.98
2023-04-16T13:20:44.111Z,51.92
2023-04-16T13:23:46.516Z,51.59
2023-04-16T13:26:48.964Z,51.44
2023-04-16T13:29:51.300Z,51.78
2023-04-16T13:32:53.645Z,51.71
2023-04-16T13:35:56.118Z,51.90
2023-04-16T13:38:59.419Z,51.56
2023-04-16T13:42:02.738Z,51.52
2023-04-16T13:45:05.796Z,51.67
2023-04-16T13:48:08.283Z,51.71
2023-04-16T13:51:10.796Z,51.50
2023-04-16T13:54:13.386Z,51.49
2023-04-16T13:57:16.017Z,51.73
2023-04-16T14:00:18.768Z,51.67
2023-04-16T14:03:21.270Z,51.73
2023-04-16T14:06:23.660Z,51.66
2023-04-16T14:09:26.267Z,51.41
2023-04-16T14:12:28.764Z,51.48
2023-04-16T14:15:31.723Z,51.54
2023-04-16T14:18:34.119Z,51.65
2023-04-16T14:21:36.566Z,51.83
2023-04-16T14:24:39.041Z,51.37
2023-04-16T14:27:41.603Z,51.61
2023-04-16T14:30:44.178Z,51.70
2023-04-16T14:33:46.905Z,51.63
2023-04-16T14:36:50.425Z,51.52
2023-04-16T14:39:52.797Z,51.54
2023-04-16T14:42:55.204Z,51.79
2023-04-16T14:45:59.071Z,51.56
2023-04-16T14:49:01.686Z,51.63
2023-04-16T14:52:05.796Z,51.69
2023-04-16T14:55:08.312Z,51.63
2023-04-16T14:58:10.883Z,51.78
2023-04-16T15:01:14.945Z,51.79
2023-04-16T15:04:17.517Z,51.75
2023-04-16T15:07:20.095Z,51.80
2023-04-16T15:10:22.575Z,51.86
2023-04-16T15:13:25.093Z,51.71
2023-04-16T15:16:27.425Z,51.79
2023-04-16T15:19:29.942Z,51.80
2023-04-16T15:22:32.414Z,51.71
2023-04-16T15:25:34.953Z,51.67
2023-04-16T15:28:37.317Z,51.84
2023-04-16T15:31:39.687Z,51.60
2023-04-16T15:34:42.233Z,51.89
2023-04-16T15:37:44.557Z,51.89
2023-04-16T15:40:47.224Z,51.53
2023-04-16T15:43:49.655Z,52.01
2023-04-16T15:46:52.507Z,51.89
2023-04-16T15:49:55.432Z,51.56
2023-04-16T15:52:57.949Z,51.81
2023-04-16T15:56:00.946Z,51.89
2023-04-16T15:59:03.952Z,51.68
2023-04-16T16:02:06.682Z,51.79
2023-04-16T16:05:13.778Z,51.88
2023-04-16T16:08:16.598Z,51.95
2023-04-16T16:11:19.170Z,51.65
2023-04-16T16:14:22.089Z,52.27
2023-04-16T16:17:25.170Z,52.09
2023-04-16T16:20:27.943Z,52.02
2023-04-16T16:23:30.521Z,52.13
2023-04-16T16:26:33.063Z,52.10
2023-04-16T16:29:35.404Z,52.18
2023-04-16T16:32:40.891Z,52.01
2023-04-16T16:35:43.446Z,52.37
2023-04-16T16:38:47.413Z,52.05
2023-04-16T16:41:52.370Z,52.49
2023-04-16T16:44:56.776Z,52.07
2023-04-16T16:48:00.159Z,52.02
2023-04-16T16:51:02.775Z,52.18
2023-04-16T16:54:07.833Z,52.17
2023-04-16T16:57:10.166Z,52.37
2023-04-16T17:00:19.823Z,52.49
2023-04-16T17:03:22.454Z,52.58
2023-04-16T17:06:25.034Z,52.28
2023-04-16T17:09:27.813Z,52.41
2023-04-16T17:12:30.654Z,52.72
2023-04-16T17:15:33.181Z,52.14
2023-04-16T17:18:35.834Z,52.31
2023-04-16T17:21:38.467Z,52.64
2023-04-16T17:24:42.132Z,52.65
2023-04-16T17:27:44.722Z,52.39
2023-04-16T17:30:51.490Z,52.50
2023-04-16T17:33:54.075Z,52.47
2023-04-16T17:36:56.601Z,52.61
2023-04-16T17:39:59.263Z,52.78
2023-04-16T17:43:01.785Z,52.66
2023-04-16T17:46:05.242Z,52.66
2023-04-16T17:49:08.895Z,52.37
2023-04-16T17:52:11.478Z,52.78
2023-04-16T17:55:13.977Z,52.67
2023-04-16T17:58:16.397Z,52.58
2023-04-16T18:01:18.790Z,52.78
2023-04-16T18:04:21.500Z,52.98
2023-04-16T18:07:24.114Z,52.67
2023-04-16T18:10:26.683Z,52.78
2023-04-16T18:13:29.229Z,52.83
2023-04-16T18:16:32.346Z,53.16
2023-04-16T18:19:35.714Z,52.95
2023-04-16T18:22:38.199Z,53.13
2023-04-16T18:25:40.969Z,52.91
2023-04-16T18:28:43.631Z,53.20
2023-04-16T18:31:46.182Z,53.14
2023-04-16T18:34:48.808Z,53.09
2023-04-16T18:37:51.465Z,53.24
2023-04-16T18:40:54.021Z,53.28
2023-04-16T18:43:56.859Z,53.11
2023-04-16T18:46:59.396Z,53.29
2023-04-16T18:50:02.016Z,53.25
2023-04-16T18:53:04.551Z,53.45
2023-04-16T18:56:07.252Z,53.28
2023-04-16T18:59:09.974Z,53.55
2023-04-16T19:02:12.642Z,53.84
2023-04-16T19:05:15.529Z,53.59
2023-04-16T19:08:18.126Z,53.49
2023-04-16T19:11:20.695Z,53.67
2023-04-16T19:14:23.293Z,53.57
2023-04-16T19:17:26.674Z,54.14
2023-04-16T19:20:29.094Z,53.68
2023-04-16T19:23:31.755Z,53.77
2023-04-16T19:26:34.206Z,53.92
2023-04-16T19:29:37.024Z,53.85
2023-04-16T19:32:39.648Z,53.83
2023-04-16T19:35:43.034Z,54.12
2023-04-16T19:38:45.862Z,54.37
2023-04-16T19:41:48.209Z,54.03
2023-04-16T19:44:50.764Z,53.91
2023-04-16T19:47:53.733Z,54.06
2023-04-16T19:50:56.290Z,53.99
2023-04-16T19:53:59.077Z,53.99
2023-04-16T19:57:01.635Z,54.11
2023-04-16T20:00:08.390Z,54.10
2023-04-16T20:03:10.977Z,54.29
2023-04-16T20:06:13.620Z,54.46
2023-04-16T20:09:18.658Z,54.30
2023-04-16T20:12:21.040Z,54.14
2023-04-16T20:15:23.606Z,54.36
2023-04-16T20:18:28.232Z,54.04
2023-04-16T20:21:32.018Z,54.51
2023-04-16T20:24:34.525Z,54.31
2023-04-16T20:27:36.925Z,54.28
2023-04-16T20:30:39.504Z,54.53
2023-04-16T20:33:41.839Z,54.13
2023-04-16T20:36:44.354Z,54.30
2023-04-16T20:39:50.043Z,54.63
2023-04-16T20:42:52.440Z,54.73
2023-04-16T20:45:54.794Z,54.34
2023-04-16T20:48:57.197Z,54.44
2023-04-16T20:51:59.715Z,54.22
2023-04-16T20:55:02.121Z,54.47
2023-04-16T20:58:04.464Z,54.72
2023-04-16T21:01:06.989Z,54.49
2023-04-16T21:04:09.756Z,54.41
2023-04-16T21:07:12.358Z,54.15
2023-04-16T21:10:20.285Z,54.60
2023-04-16T21:13:22.929Z,54.47
2023-04-16T21:16:25.450Z,54.59
2023-04-16T21:19:27.819Z,54.62
2023-04-16T21:22:30.234Z,54.26
2023-04-16T21:25:33.556Z,54.35
2023-04-16T21:28:35.996Z,54.66
2023-04-16T21:31:38.415Z,54.73
2023-04-16T21:34:40.779Z,54.66
2023-04-16T21:37:43.123Z,54.63
2023-04-16T21:40:46.881Z,54.56
2023-04-16T21:43:49.220Z,54.57
2023-04-16T21:46:51.735Z,54.72
2023-04-16T21:49:54.156Z,54.34
2023-04-16T21:52:56.545Z,54.67
2023-04-16T21:55:59.138Z,54.42
2023-04-16T21:59:01.470Z,54.40
2023-04-16T22:02:04.212Z,54.80
2023-04-16T22:05:07.451Z,54.73
2023-04-16T22:08:23.272Z,54.62
2023-04-16T22:11:27.278Z,54.45
2023-04-16T22:14:30.285Z,54.70
2023-04-16T22:17:34.359Z,54.79
2023-04-16T22:20:39.190Z,54.43
2023-04-16T22:23:41.834Z,54.52
2023-04-16T22:26:44.146Z,54.47
2023-04-16T22:29:46.510Z,55.00
2023-04-16T22:32:48.938Z,54.60
2023-04-16T22:35:51.983Z,55.00
2023-04-16T22:38:54.348Z,54.58
2023-04-16T22:41:56.748Z,55.09
2023-04-16T22:44:59.043Z,55.01
2023-04-16T22:48:01.453Z,54.63
2023-04-16T22:51:04.884Z,54.86
2023-04-16T22:54:07.937Z,54.88
2023-04-16T22:57:10.274Z,54.95
2023-04-16T23:00:16.516Z,54.80
2023-04-16T23:03:19.072Z,54.89
2023-04-16T23:06:22.062Z,54.57
2023-04-16T23:09:24.402Z,54.78
2023-04-16T23:12:26.791Z,54.73
2023-04-16T23:15:29.509Z,54.55
2023-04-16T23:18:31.930Z,54.71
2023-04-16T23:21:34.252Z,54.87
2023-04-16T23:24:36.605Z,55.06
2023-04-16T23:27:38.961Z,54.91
2023-04-16T23:30:41.318Z,54.80
2023-04-16T23:33:43.613Z,54.86
2023-04-16T23:36:46.404Z,54.67
2023-04-16T23:39:48.752Z,54.87
2023-04-16T23:42:51.113Z,54.59
2023-04-16T23:45:53.506Z,54.99
2023-04-16T23:48:55.948Z,55.10
2023-04-16T23:51:58.378Z,54.96
2023-04-16T23:55:00.779Z,54.74
2023-04-16T23:58:03.190Z,54.66
